createdAt,value
2024-05-09T00:00:47.649Z,3.20
2024-05-09T00:03:36.705Z,3.50
2024-05-09T00:06:05.916Z,4.43
2024-05-09T00:08:35.128Z,3.47
2024-05-09T00:11:03.975Z,4.18
2024-05-09T00:13:32.925Z,4.75
2024-05-09T00:16:00.953Z,4.75
2024-05-09T00:18:29.847Z,5.07
2024-05-09T00:20:58.201Z,5.07
2024-05-09T00:23:27.082Z,5.53
2024-05-09T00:25:57.049Z,5.70
2024-05-09T00:28:26.459Z,6.13
2024-05-09T00:30:55.391Z,5.18
2024-05-09T00:33:24.934Z,4.50
2024-05-09T00:35:53.577Z,5.28
2024-05-09T00:38:22.183Z,5.07
2024-05-09T00:40:50.739Z,4.95
2024-05-09T00:43:20.320Z,5.00
2024-05-09T00:45:49.280Z,5.22
2024-05-09T00:48:20.769Z,4.32
2024-05-09T00:50:50.021Z,3.85
2024-05-09T00:53:19.568Z,4.10
2024-05-09T00:55:48.158Z,4.20
2024-05-09T00:58:19.796Z,5.20
2024-05-09T01:00:49.931Z,4.53
2024-05-09T01:03:19.503Z,4.30
2024-05-09T01:05:48.671Z,3.85
2024-05-09T01:08:17.620Z,3.42
2024-05-09T01:10:47.992Z,4.28
2024-05-09T01:13:17.493Z,4.55
2024-05-09T01:15:48.410Z,4.03
2024-05-09T01:18:17.291Z,4.28
2024-05-09T01:20:46.526Z,3.75
2024-05-09T01:23:16.427Z,4.20
2024-05-09T01:25:47.509Z,3.78
2024-05-09T01:28:17.394Z,4.07
2024-05-09T01:30:47.370Z,3.90
2024-05-09T01:33:17.071Z,3.55
2024-05-09T01:35:45.587Z,3.25
2024-05-09T01:38:17.719Z,3.63
2024-05-09T01:40:47.481Z,3.60
2024-05-09T01:43:16.708Z,4.00
2024-05-09T01:45:45.317Z,3.38
2024-05-09T01:48:14.806Z,4.32
2024-05-09T01:50:43.863Z,4.38
2024-05-09T01:53:15.282Z,3.78
2024-05-09T01:55:44.791Z,4.22
2024-05-09T01:58:14.163Z,4.15
2024-05-09T02:00:43.571Z,3.97
2024-05-09T02:03:16.486Z,3.75
2024-05-09T02:05:48.015Z,3.95
2024-05-09T02:08:22.119Z,4.30
2024-05-09T02:10:51.219Z,4.28
2024-05-09T02:13:20.405Z,4.47
2024-05-09T02:15:52.622Z,4.40
2024-05-09T02:18:21.882Z,4.25
2024-05-09T02:20:50.365Z,4.10
2024-05-09T02:23:20.403Z,4.63
2024-05-09T02:25:49.053Z,3.83
2024-05-09T02:28:18.807Z,3.80
2024-05-09T02:30:47.667Z,4.70
2024-05-09T02:33:16.966Z,3.83
2024-05-09T02:35:45.853Z,4.22
2024-05-09T02:38:15.158Z,3.78
2024-05-09T02:40:46.260Z,3.67
2024-05-09T02:43:14.933Z,4.60
2024-05-09T02:45:43.655Z,4.50
2024-05-09T02:48:14.145Z,4.35
2024-05-09T02:50:46.473Z,4.30
2024-05-09T02:53:15.575Z,4.63
2024-05-09T02:55:44.432Z,4.07
2024-05-09T02:58:13.405Z,4.03
2024-05-09T03:00:44.314Z,4.22
2024-05-09T03:03:19.082Z,3.83
2024-05-09T03:05:48.876Z,4.50
2024-05-09T03:08:17.795Z,4.07
2024-05-09T03:10:46.198Z,4.05
2024-05-09T03:13:16.169Z,3.85
2024-05-09T03:15:45.633Z,4.35
2024-05-09T03:18:15.781Z,4.80
2024-05-09T03:20:45.191Z,4.25
2024-05-09T03:23:14.291Z,4.47
2024-05-09T03:25:42.418Z,4.35
2024-05-09T03:28:12.031Z,4.03
2024-05-09T03:30:42.588Z,4.05
2024-05-09T03:33:16.013Z,4.82
2024-05-09T03:35:44.935Z,4.95
2024-05-09T03:38:14.115Z,5.13
2024-05-09T03:40:50.023Z,4.50
2024-05-09T03:43:20.284Z,5.03
2024-05-09T03:45:51.106Z,4.03
2024-05-09T03:48:20.267Z,4.97
2024-05-09T03:50:49.376Z,4.78
2024-05-09T03:53:18.617Z,5.80
2024-05-09T03:55:48.202Z,4.97
2024-05-09T03:58:17.692Z,4.50
2024-05-09T04:00:46.542Z,5.70
2024-05-09T04:03:16.839Z,4.95
2024-05-09T04:05:45.974Z,5.07
2024-05-09T04:08:16.134Z,4.35
2024-05-09T04:10:44.773Z,4.35
2024-05-09T04:13:13.699Z,4.82
2024-05-09T04:15:42.386Z,4.68
2024-05-09T04:18:11.396Z,4.55
2024-05-09T04:20:41.196Z,4.00
2024-05-09T04:23:14.940Z,4.25
2024-05-09T04:25:45.367Z,4.32
2024-05-09T04:28:16.164Z,4.32
2024-05-09T04:30:44.566Z,4.50
2024-05-09T04:33:15.474Z,4.78
2024-05-09T04:35:44.694Z,4.18
2024-05-09T04:38:15.311Z,4.38
2024-05-09T04:40:44.849Z,5.05
2024-05-09T04:43:19.550Z,4.75
2024-05-09T04:45:48.433Z,4.30
2024-05-09T04:48:17.579Z,4.75
2024-05-09T04:50:45.939Z,4.53
2024-05-09T04:53:17.933Z,5.40
2024-05-09T04:55:47.032Z,4.68
2024-05-09T04:58:15.926Z,4.88
2024-05-09T05:00:44.390Z,4.05
2024-05-09T05:03:15.703Z,3.80
2024-05-09T05:05:47.882Z,3.92
2024-05-09T05:08:19.341Z,4.88
2024-05-09T05:10:49.002Z,4.00
2024-05-09T05:13:25.286Z,3.72
2024-05-09T05:15:57.717Z,3.83
2024-05-09T05:18:28.269Z,3.85
2024-05-09T05:20:57.569Z,3.53
2024-05-09T05:23:26.827Z,3.90
2024-05-09T05:25:55.705Z,3.63
2024-05-09T05:28:25.125Z,4.00
2024-05-09T05:30:53.281Z,3.55
2024-05-09T05:33:23.256Z,4.03
2024-05-09T05:35:51.698Z,4.10
2024-05-09T05:38:23.850Z,3.50
2024-05-09T05:40:54.875Z,4.22
2024-05-09T05:43:23.895Z,3.83
2024-05-09T05:45:52.260Z,3.35
2024-05-09T05:48:21.428Z,3.95
2024-05-09T05:50:49.864Z,3.20
2024-05-09T05:53:18.820Z,3.90
2024-05-09T05:55:47.183Z,3.60
2024-05-09T05:58:16.235Z,4.13
2024-05-09T06:00:44.592Z,4.00
2024-05-09T06:03:14.561Z,4.07
2024-05-09T06:05:44.581Z,4.20
2024-05-09T06:08:13.953Z,3.70
2024-05-09T06:10:42.912Z,3.60
2024-05-09T06:13:14.546Z,3.80
2024-05-09T06:15:43.818Z,3.20
2024-05-09T06:18:14.754Z,3.75
2024-05-09T06:20:44.215Z,3.45
2024-05-09T06:23:13.624Z,4.00
2024-05-09T06:25:42.992Z,3.47
2024-05-09T06:28:11.936Z,4.22
2024-05-09T06:30:42.592Z,2.97
2024-05-09T06:33:14.691Z,3.13
2024-05-09T06:35:45.191Z,3.20
2024-05-09T06:38:14.528Z,3.15
2024-05-09T06:40:44.143Z,3.00
2024-05-09T06:43:14.756Z,2.95
2024-05-09T06:45:44.422Z,3.63
2024-05-09T06:48:13.620Z,3.17
2024-05-09T06:50:42.463Z,3.13
2024-05-09T06:53:13.913Z,2.95
2024-05-09T06:55:42.525Z,2.90
2024-05-09T06:58:11.494Z,2.53
2024-05-09T07:00:41.584Z,2.63
2024-05-09T07:03:13.818Z,3.22
2024-05-09T07:05:44.437Z,2.67
2024-05-09T07:08:15.376Z,6.60
2024-05-09T07:10:44.076Z,2.65
2024-05-09T07:13:14.467Z,3.00
2024-05-09T07:15:43.261Z,2.78
2024-05-09T07:18:14.320Z,2.50
2024-05-09T07:20:43.086Z,2.97
2024-05-09T07:23:12.857Z,2.65
2024-05-09T07:25:42.134Z,2.22
2024-05-09T07:28:13.800Z,2.47
2024-05-09T07:30:43.353Z,2.50
2024-05-09T07:33:20.330Z,2.30
2024-05-09T07:35:50.203Z,1.95
2024-05-09T07:38:19.278Z,1.80
2024-05-09T07:40:47.687Z,2.20
2024-05-09T07:43:16.769Z,1.70
2024-05-09T07:45:52.236Z,1.73
2024-05-09T07:52:39.239Z,2.03
2024-05-09T07:53:49.644Z,1.90
2024-05-09T07:56:22.812Z,1.90
2024-05-09T07:58:54.578Z,1.55
2024-05-09T08:01:22.940Z,1.83
2024-05-09T08:03:51.957Z,1.92
2024-05-09T08:06:20.432Z,1.85
2024-05-09T08:08:49.100Z,1.92
2024-05-09T08:11:17.770Z,1.83
2024-05-09T08:13:47.281Z,1.77
2024-05-09T08:16:15.700Z,1.60
2024-05-09T08:18:44.569Z,2.00
2024-05-09T08:21:12.608Z,1.85
2024-05-09T08:23:41.363Z,1.77
2024-05-09T08:26:09.703Z,1.80
2024-05-09T08:28:38.244Z,1.70
2024-05-09T08:31:07.291Z,2.03
2024-05-09T08:33:36.842Z,2.00
2024-05-09T08:36:05.679Z,2.17
2024-05-09T08:38:34.349Z,2.00
2024-05-09T08:41:04.546Z,2.08
2024-05-09T08:43:33.468Z,1.70
2024-05-09T08:46:02.935Z,1.67
2024-05-09T08:48:35.300Z,2.17
2024-05-09T08:51:03.898Z,1.67
2024-05-09T08:53:33.088Z,1.70
2024-05-09T08:56:02.845Z,2.10
2024-05-09T08:58:32.344Z,2.13
2024-05-09T09:01:01.627Z,2.33
2024-05-09T09:03:31.507Z,2.00
2024-05-09T09:06:07.060Z,2.03
2024-05-09T09:08:39.382Z,2.00
2024-05-09T09:11:07.828Z,2.20
2024-05-09T09:13:37.366Z,2.10
2024-05-09T09:16:07.314Z,2.17
2024-05-09T09:18:36.880Z,2.10
2024-05-09T09:21:05.459Z,2.00
2024-05-09T09:23:34.357Z,2.20
2024-05-09T09:26:02.755Z,1.85
2024-05-09T09:28:31.645Z,1.60
2024-05-09T09:31:06.070Z,1.80
2024-05-09T09:33:36.470Z,1.67
2024-05-09T09:36:08.198Z,1.50
2024-05-09T09:38:38.569Z,2.22
2024-05-09T09:41:11.761Z,1.70
2024-05-09T09:43:42.120Z,1.92
2024-05-09T09:46:12.601Z,1.65
2024-05-09T09:48:43.528Z,1.87
2024-05-09T09:51:12.093Z,1.42
2024-05-09T09:53:42.944Z,2.05
2024-05-09T09:56:12.472Z,1.77
2024-05-09T09:58:43.179Z,1.90
2024-05-09T10:01:11.786Z,1.90
2024-05-09T10:03:41.681Z,2.00
2024-05-09T10:06:11.712Z,1.50
2024-05-09T10:08:40.370Z,1.98
2024-05-09T10:11:08.588Z,1.70
2024-05-09T10:13:37.927Z,1.55
2024-05-09T10:16:10.814Z,1.60
2024-05-09T10:18:41.727Z,1.63
2024-05-09T10:21:20.549Z,1.75
2024-05-09T10:24:08.672Z,1.85
2024-05-09T10:26:38.167Z,1.65
2024-05-09T10:29:20.588Z,1.90
2024-05-09T10:31:48.895Z,1.80
2024-05-09T10:34:23.288Z,1.48
2024-05-09T10:36:55.853Z,1.60
2024-05-09T10:41:57.894Z,1.63
2024-05-09T10:44:26.742Z,1.80
2024-05-09T10:46:55.619Z,1.75
2024-05-09T10:49:24.744Z,2.00
2024-05-09T10:51:53.193Z,1.65
2024-05-09T10:54:22.355Z,2.25
2024-05-09T10:56:59.847Z,1.80
2024-05-09T10:59:40.850Z,1.48
2024-05-09T11:02:10.194Z,1.77
2024-05-09T11:04:41.004Z,1.75
2024-05-09T11:07:11.842Z,1.90
2024-05-09T11:09:40.951Z,1.90
2024-05-09T11:12:09.651Z,1.88
2024-05-09T11:14:38.167Z,1.55
2024-05-09T11:17:08.313Z,1.73
2024-05-09T11:19:41.075Z,1.65
2024-05-09T11:22:10.130Z,1.58
2024-05-09T11:24:41.033Z,1.58
2024-05-09T11:27:09.060Z,1.50
2024-05-09T11:29:45.358Z,1.90
2024-05-09T11:32:15.362Z,1.30
2024-05-09T11:34:44.415Z,1.45
2024-05-09T11:37:14.270Z,1.90
2024-05-09T11:39:42.842Z,1.67
2024-05-09T11:42:11.328Z,1.85
2024-05-09T11:44:40.414Z,1.92
2024-05-09T11:47:09.027Z,1.70
2024-05-09T11:49:38.109Z,1.38
2024-05-09T11:52:06.579Z,1.45
2024-05-09T11:54:35.312Z,1.50
2024-05-09T11:57:03.687Z,1.70
2024-05-09T11:59:33.042Z,1.75
2024-05-09T12:02:01.699Z,2.13
2024-05-09T12:04:30.806Z,1.60
2024-05-09T12:07:01.295Z,2.03
2024-05-09T12:09:30.494Z,2.05
2024-05-09T12:11:58.607Z,1.67
2024-05-09T12:14:27.956Z,1.52
2024-05-09T12:16:56.433Z,1.70
2024-05-09T12:19:26.587Z,1.88
2024-05-09T12:21:55.297Z,1.83
2024-05-09T12:24:25.706Z,1.65
2024-05-09T12:26:53.678Z,1.70
2024-05-09T12:29:22.144Z,1.83
2024-05-09T12:31:51.144Z,1.63
2024-05-09T12:34:19.399Z,1.80
2024-05-09T12:36:47.709Z,1.58
2024-05-09T12:39:16.866Z,1.42
2024-05-09T12:41:44.315Z,1.73
2024-05-09T12:44:12.450Z,1.52
2024-05-09T12:46:41.239Z,1.85
2024-05-09T12:49:10.008Z,1.40
2024-05-09T12:51:38.718Z,1.77
2024-05-09T12:54:09.679Z,1.38
2024-05-09T12:56:38.446Z,1.83
2024-05-09T12:59:14.657Z,1.42
2024-05-09T13:01:43.928Z,1.88
2024-05-09T13:04:13.470Z,1.60
2024-05-09T13:06:42.437Z,1.67
2024-05-09T13:09:13.122Z,1.50
2024-05-09T13:11:42.261Z,1.52
2024-05-09T13:14:11.017Z,1.70
2024-05-09T13:16:39.601Z,1.80
2024-05-09T13:19:09.242Z,1.50
2024-05-09T13:21:37.834Z,1.55
2024-05-09T13:24:06.940Z,1.70
2024-05-09T13:26:35.336Z,1.88
2024-05-09T13:29:07.548Z,1.55
2024-05-09T13:31:37.288Z,1.30
2024-05-09T13:34:06.372Z,1.60
2024-05-09T13:36:35.151Z,1.77
2024-05-09T13:39:04.266Z,1.50
2024-05-09T13:41:32.447Z,1.73
2024-05-09T13:44:01.116Z,1.42
2024-05-09T13:46:29.314Z,1.50
2024-05-09T13:48:58.288Z,1.65
2024-05-09T13:51:26.698Z,1.20
2024-05-09T13:53:59.735Z,1.77
2024-05-09T13:56:28.320Z,1.75
2024-05-09T13:58:56.977Z,1.67
2024-05-09T14:01:25.842Z,1.25
2024-05-09T14:03:54.174Z,1.70
2024-05-09T14:06:22.494Z,1.67
2024-05-09T14:08:51.489Z,1.55
2024-05-09T14:11:20.302Z,1.40
2024-05-09T14:13:48.748Z,1.58
2024-05-09T14:16:16.768Z,1.70
2024-05-09T14:18:45.740Z,1.50
2024-05-09T14:21:14.253Z,1.52
2024-05-09T14:23:43.222Z,1.95
2024-05-09T14:26:11.511Z,1.77
2024-05-09T14:28:40.648Z,1.80
2024-05-09T14:31:09.291Z,1.48
2024-05-09T14:33:38.721Z,1.40
2024-05-09T14:36:07.667Z,4.70
2024-05-09T14:38:37.014Z,1.83
2024-05-09T14:41:05.127Z,1.40
2024-05-09T14:43:34.297Z,1.40
2024-05-09T14:46:02.618Z,1.80
2024-05-09T14:48:31.796Z,1.52
2024-05-09T14:51:00.108Z,1.40
2024-05-09T14:53:29.381Z,1.40
2024-05-09T14:55:58.400Z,1.45
2024-05-09T14:58:27.392Z,1.25
2024-05-09T15:00:55.673Z,1.98
2024-05-09T15:03:24.963Z,1.83
2024-05-09T15:05:53.618Z,1.92
2024-05-09T15:08:22.534Z,1.77
2024-05-09T15:10:51.244Z,2.70
2024-05-09T15:13:21.912Z,1.45
2024-05-09T15:15:50.343Z,1.92
2024-05-09T15:18:19.426Z,3.15
2024-05-09T15:20:48.943Z,2.45
2024-05-09T15:23:18.553Z,1.60
2024-05-09T15:25:47.114Z,1.60
2024-05-09T15:28:16.611Z,1.33
2024-05-09T15:30:46.858Z,1.30
2024-05-09T15:33:16.070Z,1.95
2024-05-09T15:35:47.143Z,1.75
2024-05-09T15:38:18.810Z,1.50
2024-05-09T15:40:47.431Z,1.63
2024-05-09T15:43:16.117Z,1.38
2024-05-09T15:45:44.160Z,3.13
2024-05-09T15:48:13.628Z,3.80
2024-05-09T15:50:42.659Z,1.50
2024-05-09T15:53:13.706Z,1.38
2024-05-09T15:55:43.307Z,1.40
2024-05-09T15:58:13.117Z,1.30
2024-05-09T16:00:45.083Z,1.48
2024-05-09T16:03:15.573Z,1.48
2024-05-09T16:05:46.507Z,1.63
2024-05-09T16:08:16.400Z,2.42
2024-05-09T16:10:46.755Z,2.00
2024-05-09T16:13:17.640Z,1.55
2024-05-09T16:15:46.596Z,1.70
2024-05-09T16:18:15.134Z,1.55
2024-05-09T16:20:46.424Z,1.40
2024-05-09T16:23:17.112Z,2.50
2024-05-09T16:25:48.465Z,1.80
2024-05-09T16:28:19.857Z,1.33
2024-05-09T16:30:50.290Z,1.42
2024-05-09T16:33:24.031Z,1.80
2024-05-09T16:35:52.840Z,1.45
2024-05-09T16:38:21.253Z,1.60
2024-05-09T16:40:50.955Z,1.58
2024-05-09T16:43:20.143Z,1.65
2024-05-09T16:45:49.011Z,1.20
2024-05-09T16:48:17.600Z,1.05
2024-05-09T16:50:46.446Z,1.63
2024-05-09T16:53:14.893Z,1.80
2024-05-09T16:55:43.754Z,1.67
2024-05-09T16:58:12.828Z,1.70
2024-05-09T17:00:43.650Z,1.70
2024-05-09T17:03:15.480Z,1.48
2024-05-09T17:05:47.399Z,1.40
2024-05-09T17:08:18.689Z,1.40
2024-05-09T17:10:51.183Z,1.38
2024-05-09T17:13:20.320Z,1.77
2024-05-09T17:15:52.657Z,1.55
2024-05-09T17:18:23.113Z,1.55
2024-05-09T17:20:55.600Z,1.73
2024-05-09T17:23:24.163Z,1.45
2024-05-09T17:25:53.710Z,1.50
2024-05-09T17:28:22.568Z,2.05
2024-05-09T17:30:51.499Z,1.50
2024-05-09T17:33:19.827Z,1.40
2024-05-09T17:35:50.952Z,1.70
2024-05-09T17:38:20.103Z,1.30
2024-05-09T17:40:48.830Z,1.25
2024-05-09T17:43:17.386Z,1.50
2024-05-09T17:45:46.396Z,1.77
2024-05-09T17:48:15.007Z,1.70
2024-05-09T17:50:44.001Z,2.10
2024-05-09T17:53:12.604Z,1.60
2024-05-09T17:55:41.559Z,2.03
2024-05-09T17:58:10.897Z,1.88
2024-05-09T18:00:42.058Z,2.58
2024-05-09T18:03:12.681Z,1.83
2024-05-09T18:05:44.952Z,1.85
2024-05-09T18:08:14.001Z,1.55
2024-05-09T18:10:43.433Z,1.90
2024-05-09T18:13:13.595Z,2.03
2024-05-09T18:15:42.566Z,2.35
2024-05-09T18:18:12.694Z,2.40
2024-05-09T18:20:45.304Z,2.03
2024-05-09T18:23:17.368Z,1.95
2024-05-09T18:25:48.570Z,2.13
2024-05-09T18:28:17.914Z,2.13
2024-05-09T18:30:49.030Z,2.28
2024-05-09T18:33:20.797Z,2.92
2024-05-09T18:35:50.817Z,2.47
2024-05-09T18:38:26.088Z,2.47
2024-05-09T18:40:55.145Z,2.22
2024-05-09T18:43:28.929Z,3.42
2024-05-09T18:46:04.692Z,4.15
2024-05-09T18:48:33.237Z,3.08
2024-05-09T18:51:02.725Z,5.05
2024-05-09T18:53:31.200Z,5.50
2024-05-09T18:55:59.924Z,7.47
2024-05-09T18:58:28.089Z,3.50
2024-05-09T19:00:59.951Z,3.65
2024-05-09T19:03:30.199Z,2.78
2024-05-09T19:06:01.888Z,2.80
2024-05-09T19:08:30.936Z,3.25
2024-05-09T19:11:00.010Z,3.15
2024-05-09T19:13:28.230Z,3.30
2024-05-09T19:15:57.259Z,4.53
2024-05-09T19:18:25.482Z,3.70
2024-05-09T19:20:54.858Z,3.75
2024-05-09T19:23:23.587Z,6.25
2024-05-09T19:25:52.962Z,5.60
2024-05-09T19:28:21.684Z,4.72
2024-05-09T19:30:50.490Z,4.55
2024-05-09T19:33:19.053Z,4.00
2024-05-09T19:35:48.807Z,10.75
2024-05-09T19:38:17.537Z,7.32
2024-05-09T19:40:46.807Z,3.92
2024-05-09T19:43:16.008Z,4.22
2024-05-09T19:45:45.235Z,4.13
2024-05-09T19:48:13.481Z,3.90
2024-05-09T19:50:44.529Z,4.18
2024-05-09T19:53:15.249Z,4.00
2024-05-09T19:55:44.727Z,4.00
2024-05-09T19:58:13.546Z,3.85
2024-05-09T20:00:44.024Z,3.45
2024-05-09T20:03:15.204Z,3.60
2024-05-09T20:05:46.993Z,3.90
2024-05-09T20:08:15.412Z,3.40
2024-05-09T20:10:45.251Z,3.90
2024-05-09T20:13:14.427Z,3.88
2024-05-09T20:15:44.011Z,4.18
2024-05-09T20:18:12.520Z,4.38
2024-05-09T20:20:43.755Z,4.18
2024-05-09T20:23:14.176Z,4.65
2024-05-09T20:25:44.207Z,3.70
2024-05-09T20:28:12.696Z,3.70
2024-05-09T20:30:42.145Z,3.97
2024-05-09T20:33:10.992Z,4.15
2024-05-09T20:35:40.590Z,4.05
2024-05-09T20:38:08.987Z,3.88
2024-05-09T20:40:39.451Z,4.30
2024-05-09T20:43:10.558Z,4.32
2024-05-09T20:45:40.600Z,4.40
2024-05-09T20:48:10.093Z,3.90
2024-05-09T20:50:41.807Z,4.05
2024-05-09T20:53:13.864Z,4.72
2024-05-09T20:55:45.314Z,3.95
2024-05-09T20:58:14.634Z,4.10
2024-05-09T21:00:45.965Z,4.18
2024-05-09T21:03:18.459Z,4.38
2024-05-09T21:05:49.116Z,4.97
2024-05-09T21:08:17.776Z,4.00
2024-05-09T21:10:46.775Z,5.00
2024-05-09T21:13:15.241Z,4.68
2024-05-09T21:15:44.128Z,4.78
2024-05-09T21:18:12.358Z,4.28
2024-05-09T21:20:41.771Z,4.82
2024-05-09T21:23:09.712Z,4.38
2024-05-09T21:25:39.132Z,4.50
2024-05-09T21:28:07.663Z,5.07
2024-05-09T21:30:41.665Z,4.68
2024-05-09T21:33:13.890Z,4.43
2024-05-09T21:35:44.530Z,4.03
2024-05-09T21:38:14.954Z,4.53
2024-05-09T21:40:44.643Z,4.88
2024-05-09T21:43:15.179Z,4.90
2024-05-09T21:45:44.280Z,4.95
2024-05-09T21:48:13.753Z,5.40
2024-05-09T21:50:43.240Z,5.00
2024-05-09T21:53:13.382Z,4.90
2024-05-09T21:55:43.669Z,5.40
2024-05-09T21:58:14.069Z,5.28
2024-05-09T22:00:46.075Z,5.70
2024-05-09T22:03:14.623Z,5.70
2024-05-09T22:05:45.504Z,5.57
2024-05-09T22:08:14.213Z,6.05
2024-05-09T22:10:43.529Z,5.65
2024-05-09T22:13:12.063Z,5.80
2024-05-09T22:15:41.309Z,5.88
2024-05-09T22:18:11.479Z,5.53
2024-05-09T22:20:45.807Z,5.85
2024-05-09T22:23:16.072Z,6.35
2024-05-09T22:25:44.988Z,6.70
2024-05-09T22:28:15.970Z,6.43
2024-05-09T22:30:47.316Z,6.10
2024-05-09T22:33:16.799Z,6.82
2024-05-09T22:35:46.340Z,6.75
2024-05-09T22:38:14.916Z,6.40
2024-05-09T22:40:48.320Z,5.90
2024-05-09T22:43:23.644Z,6.97
2024-05-09T22:45:57.094Z,6.13
2024-05-09T22:48:26.557Z,7.18
2024-05-09T22:50:55.579Z,6.80
2024-05-09T22:53:26.049Z,6.78
2024-05-09T22:55:55.346Z,6.03
2024-05-09T22:58:24.679Z,6.53
2024-05-09T23:00:54.171Z,6.80
2024-05-09T23:03:23.141Z,6.13
2024-05-09T23:05:54.543Z,6.38
2024-05-09T23:08:23.727Z,6.15
2024-05-09T23:10:52.512Z,7.63
2024-05-09T23:13:20.806Z,6.65
2024-05-09T23:15:50.026Z,6.38
2024-05-09T23:18:18.306Z,6.72
2024-05-09T23:20:47.166Z,7.55
2024-05-09T23:23:15.596Z,6.57
2024-05-09T23:25:44.358Z,6.78
2024-05-09T23:28:12.919Z,7.05
2024-05-09T23:30:42.292Z,6.75
2024-05-09T23:33:13.084Z,7.57
2024-05-09T23:35:44.548Z,7.25
2024-05-09T23:38:13.568Z,7.93
2024-05-09T23:40:43.493Z,7.60
2024-05-09T23:43:13.499Z,7.38
2024-05-09T23:45:43.867Z,6.80
2024-05-09T23:48:12.032Z,6.85
2024-05-09T23:50:41.353Z,7.30
2024-05-09T23:53:11.230Z,7.00
2024-05-09T23:55:40.919Z,6.55
2024-05-09T23:58:11.952Z,7.40
